createdAt,value
2017-12-23T00:01:19.614Z,22.57
2017-12-23T00:03:46.394Z,27.17
2017-12-23T00:06:13.151Z,26.10
2017-12-23T00:08:40.468Z,30.07
2017-12-23T00:11:06.786Z,29.27
2017-12-23T00:13:33.075Z,29.67
2017-12-23T00:15:59.325Z,28.73
2017-12-23T00:18:26.324Z,26.73
2017-12-23T00:20:52.551Z,29.07
2017-12-23T00:23:18.812Z,27.27
2017-12-23T00:25:45.062Z,33.20
2017-12-23T00:28:11.335Z,35.90
2017-12-23T00:30:37.552Z,36.00
2017-12-23T00:33:03.828Z,29.13
2017-12-23T00:35:30.812Z,30.73
2017-12-23T00:37:57.088Z,34.17
2017-12-23T00:40:24.873Z,21.23
2017-12-23T00:42:51.880Z,33.87
2017-12-23T00:45:18.136Z,30.03
2017-12-23T00:47:45.136Z,29.83
2017-12-23T00:50:11.391Z,33.20
2017-12-23T00:52:37.656Z,29.37
2017-12-23T00:55:04.704Z,23.60
2017-12-23T00:57:31.709Z,39.87
2017-12-23T00:59:58.031Z,31.20
2017-12-23T01:02:24.395Z,34.17
2017-12-23T01:04:50.669Z,36.40
2017-12-23T01:07:16.927Z,32.53
2017-12-23T01:09:43.197Z,21.07
2017-12-23T01:12:10.175Z,23.03
2017-12-23T01:14:36.428Z,40.50
2017-12-23T01:17:03.417Z,35.53
2017-12-23T01:19:30.457Z,31.60
2017-12-23T01:21:56.692Z,33.50
2017-12-23T01:24:23.691Z,34.43
2017-12-23T01:26:49.946Z,41.20
2017-12-23T01:29:16.184Z,38.30
2017-12-23T01:31:42.448Z,41.67
2017-12-23T01:34:08.704Z,38.33
2017-12-23T01:36:35.099Z,52.30
2017-12-23T01:39:02.157Z,41.97
2017-12-23T01:41:29.162Z,43.10
2017-12-23T01:43:55.432Z,40.90
2017-12-23T01:46:22.434Z,41.90
2017-12-23T01:48:48.661Z,45.83
2017-12-23T01:51:14.927Z,47.20
2017-12-23T01:53:41.915Z,49.63
2017-12-23T01:56:08.176Z,47.87
2017-12-23T01:58:34.424Z,53.67
2017-12-23T02:01:00.683Z,54.23
2017-12-23T02:03:26.929Z,60.10
2017-12-23T02:05:53.178Z,42.00
2017-12-23T02:08:19.434Z,53.37
2017-12-23T02:10:45.708Z,58.43
2017-12-23T02:13:11.948Z,53.60
2017-12-23T02:15:38.269Z,60.90
2017-12-23T02:18:04.520Z,43.90
2017-12-23T02:20:30.801Z,57.27
2017-12-23T02:22:57.820Z,71.10
2017-12-23T02:25:24.108Z,65.73
2017-12-23T02:27:50.335Z,48.33
2017-12-23T02:30:16.582Z,58.07
2017-12-23T02:32:42.834Z,57.90
2017-12-23T02:35:09.108Z,56.80
2017-12-23T02:37:35.352Z,55.13
2017-12-23T02:40:01.614Z,62.53
2017-12-23T02:42:27.868Z,73.47
2017-12-23T02:44:54.131Z,62.93
2017-12-23T02:47:20.387Z,59.37
2017-12-23T02:49:46.659Z,61.97
2017-12-23T02:52:13.652Z,61.13
2017-12-23T02:54:39.899Z,63.40
2017-12-23T02:57:06.131Z,66.13
2017-12-23T02:59:32.410Z,75.07
2017-12-23T03:01:59.403Z,39.27
2017-12-23T03:04:25.642Z,46.60
2017-12-23T03:06:51.893Z,44.20
2017-12-23T03:09:18.152Z,61.13
2017-12-23T03:11:44.387Z,71.00
2017-12-23T03:14:10.650Z,70.93
2017-12-23T03:16:36.928Z,73.83
2017-12-23T03:19:03.945Z,43.77
2017-12-23T03:21:30.216Z,51.10
2017-12-23T03:23:56.467Z,56.07
2017-12-23T03:26:22.746Z,44.47
2017-12-23T03:28:49.781Z,66.63
2017-12-23T03:31:17.132Z,57.70
2017-12-23T03:33:43.391Z,64.50
2017-12-23T03:36:09.669Z,59.73
2017-12-23T03:38:35.905Z,71.97
2017-12-23T03:41:02.225Z,40.97
2017-12-23T03:43:28.453Z,58.67
2017-12-23T03:45:54.732Z,69.53
2017-12-23T03:48:21.722Z,61.93
2017-12-23T03:50:47.984Z,59.90
2017-12-23T03:53:14.240Z,68.23
2017-12-23T03:55:40.510Z,53.17
2017-12-23T03:58:07.502Z,50.50
2017-12-23T04:00:34.532Z,63.33
2017-12-23T04:03:00.782Z,49.60
2017-12-23T04:05:27.776Z,62.60
2017-12-23T04:07:54.018Z,50.57
2017-12-23T04:10:20.267Z,45.33
2017-12-23T04:12:46.516Z,47.57
2017-12-23T04:15:12.777Z,50.73
2017-12-23T04:17:39.004Z,52.33
2017-12-23T04:20:05.317Z,61.07
2017-12-23T04:22:31.560Z,46.90
2017-12-23T04:24:57.871Z,54.23
2017-12-23T04:27:24.126Z,57.37
2017-12-23T04:29:50.387Z,51.33
2017-12-23T04:32:16.617Z,70.87
2017-12-23T04:34:42.874Z,55.63
2017-12-23T04:37:09.135Z,35.07
2017-12-23T04:39:35.403Z,63.57
2017-12-23T04:42:01.664Z,68.53
2017-12-23T04:44:27.929Z,40.97
2017-12-23T04:46:54.185Z,61.60
2017-12-23T04:49:20.442Z,74.70
2017-12-23T04:51:46.731Z,70.80
2017-12-23T04:54:13.089Z,70.70
2017-12-23T04:56:40.067Z,71.83
2017-12-23T04:59:06.324Z,71.07
2017-12-23T05:01:32.555Z,74.20
2017-12-23T05:03:59.574Z,56.13
2017-12-23T05:06:25.827Z,58.87
2017-12-23T05:08:52.068Z,65.80
2017-12-23T05:11:18.338Z,71.07
2017-12-23T05:13:45.658Z,68.20
2017-12-23T05:16:11.924Z,65.63
2017-12-23T05:18:38.179Z,43.20
2017-12-23T05:21:04.437Z,43.07
2017-12-23T05:23:30.685Z,28.17
2017-12-23T05:25:57.721Z,53.63
2017-12-23T05:28:23.951Z,48.73
2017-12-23T05:30:50.219Z,47.80
2017-12-23T05:33:16.457Z,34.67
2017-12-23T05:35:42.699Z,50.77
2017-12-23T05:38:08.947Z,47.67
2017-12-23T05:40:35.203Z,46.20
2017-12-23T05:43:02.227Z,56.87
2017-12-23T05:45:28.488Z,32.83
2017-12-23T05:47:55.470Z,63.43
2017-12-23T05:50:21.737Z,56.63
2017-12-23T05:52:47.958Z,33.80
2017-12-23T05:55:14.248Z,52.50
2017-12-23T05:57:40.587Z,63.47
2017-12-23T06:00:06.898Z,50.27
2017-12-23T06:02:33.155Z,53.10
2017-12-23T06:04:59.393Z,48.77
2017-12-23T06:07:25.653Z,57.13
2017-12-23T06:09:52.627Z,52.93
2017-12-23T06:12:18.897Z,52.80
2017-12-23T06:14:45.502Z,43.03
2017-12-23T06:17:11.768Z,28.53
2017-12-23T06:19:38.016Z,21.83
2017-12-23T06:22:04.265Z,27.67
2017-12-23T06:24:31.236Z,43.87
2017-12-23T06:26:57.519Z,33.83
2017-12-23T06:29:23.774Z,39.23
2017-12-23T06:31:50.763Z,36.93
2017-12-23T06:34:17.023Z,41.53
2017-12-23T06:36:43.293Z,41.37
2017-12-23T06:39:09.545Z,37.17
2017-12-23T06:41:35.836Z,38.07
2017-12-23T06:44:02.116Z,31.20
2017-12-23T06:46:28.398Z,42.90
2017-12-23T06:48:55.405Z,33.40
2017-12-23T06:51:21.682Z,25.17
2017-12-23T06:53:47.964Z,30.93
2017-12-23T06:56:14.252Z,25.67
2017-12-23T06:58:40.532Z,22.87
2017-12-23T07:01:06.804Z,30.73
2017-12-23T07:03:33.068Z,24.97
2017-12-23T07:05:59.335Z,24.63
2017-12-23T07:08:26.311Z,32.77
2017-12-23T07:10:52.583Z,24.30
2017-12-23T07:13:19.566Z,17.47
2017-12-23T07:15:46.628Z,25.40
2017-12-23T07:18:12.877Z,23.87
2017-12-23T07:20:39.143Z,22.37
2017-12-23T07:23:05.502Z,21.80
2017-12-23T07:25:32.540Z,21.00
2017-12-23T07:27:59.542Z,24.07
2017-12-23T07:30:26.551Z,33.00
2017-12-23T07:32:52.786Z,11.87
2017-12-23T07:35:19.057Z,25.60
2017-12-23T07:37:45.292Z,29.90
2017-12-23T07:40:11.547Z,17.37
2017-12-23T07:42:38.600Z,23.30
2017-12-23T07:45:05.572Z,19.73
2017-12-23T07:47:31.824Z,16.90
2017-12-23T07:49:58.056Z,23.97
2017-12-23T07:52:24.315Z,23.97
2017-12-23T07:54:50.563Z,23.50
2017-12-23T07:57:17.569Z,11.73
2017-12-23T07:59:44.555Z,19.90
2017-12-23T08:02:11.571Z,19.10
2017-12-23T08:04:39.368Z,17.87
2017-12-23T08:07:06.423Z,11.13
2017-12-23T08:09:33.399Z,11.70
2017-12-23T08:11:59.661Z,12.33
2017-12-23T08:14:25.912Z,14.60
2017-12-23T08:16:52.955Z,17.23
2017-12-23T08:19:19.311Z,14.87
2017-12-23T08:21:45.695Z,14.50
2017-12-23T08:24:11.952Z,12.50
2017-12-23T08:26:38.960Z,14.10
2017-12-23T08:29:05.240Z,16.50
2017-12-23T08:31:32.292Z,15.23
2017-12-23T08:33:58.573Z,16.57
2017-12-23T08:36:25.551Z,10.17
2017-12-23T08:38:52.567Z,14.10
2017-12-23T08:41:19.538Z,20.57
2017-12-23T08:43:45.802Z,18.33
2017-12-23T08:46:12.130Z,16.23
2017-12-23T08:48:38.391Z,12.00
2017-12-23T08:51:05.371Z,15.40
2017-12-23T08:53:32.395Z,17.60
2017-12-23T08:55:58.649Z,9.67
2017-12-23T08:58:24.984Z,11.30
2017-12-23T09:00:51.249Z,16.03
2017-12-23T09:03:17.513Z,19.27
2017-12-23T09:05:43.755Z,13.30
2017-12-23T09:08:10.037Z,11.10
2017-12-23T09:10:36.284Z,14.30
2017-12-23T09:13:02.588Z,15.30
2017-12-23T09:15:28.818Z,9.90
2017-12-23T09:17:55.079Z,10.03
2017-12-23T09:20:21.346Z,10.17
2017-12-23T09:22:48.343Z,7.67
2017-12-23T09:25:14.789Z,10.47
2017-12-23T09:27:41.035Z,14.23
2017-12-23T09:30:08.409Z,10.20
2017-12-23T09:32:35.417Z,4.00
2017-12-23T09:35:01.669Z,8.37
2017-12-23T09:37:27.935Z,9.77
2017-12-23T09:39:54.172Z,11.37
2017-12-23T09:42:20.593Z,4.20
2017-12-23T09:44:47.609Z,11.90
2017-12-23T09:47:13.857Z,15.30
2017-12-23T09:49:40.877Z,11.57
2017-12-23T09:52:07.137Z,10.73
2017-12-23T09:54:34.199Z,17.37
2017-12-23T09:57:00.455Z,16.70
2017-12-23T09:59:26.824Z,12.83
2017-12-23T10:01:53.088Z,19.00
2017-12-23T10:04:19.401Z,21.10
2017-12-23T10:06:46.669Z,19.70
2017-12-23T10:09:12.923Z,20.57
2017-12-23T10:11:39.159Z,21.17
2017-12-23T10:14:05.452Z,26.07
2017-12-23T10:16:32.479Z,13.03
2017-12-23T10:18:58.778Z,20.80
2017-12-23T10:21:25.055Z,21.33
2017-12-23T10:23:52.034Z,14.67
2017-12-23T10:26:18.312Z,18.77
2017-12-23T10:28:44.808Z,13.33
2017-12-23T10:31:11.060Z,18.80
2017-12-23T10:33:37.376Z,18.83
2017-12-23T10:36:03.624Z,12.60
2017-12-23T10:38:29.894Z,18.70
2017-12-23T10:40:56.158Z,20.00
2017-12-23T10:43:22.436Z,14.83
2017-12-23T10:45:49.460Z,17.20
2017-12-23T10:48:15.734Z,11.60
2017-12-23T10:50:42.064Z,15.83
2017-12-23T10:53:08.332Z,14.67
2017-12-23T10:55:34.617Z,20.07
2017-12-23T10:58:00.885Z,8.43
2017-12-23T11:00:28.683Z,12.13
2017-12-23T11:02:55.088Z,15.60
2017-12-23T11:05:21.354Z,20.17
2017-12-23T11:07:48.348Z,17.90
2017-12-23T11:10:14.645Z,21.80
2017-12-23T11:12:40.994Z,11.07
2017-12-23T11:15:07.280Z,18.03
2017-12-23T11:17:33.559Z,20.60
2017-12-23T11:19:59.803Z,20.83
2017-12-23T11:22:26.064Z,24.70
2017-12-23T11:24:52.300Z,25.40
2017-12-23T11:27:19.302Z,27.97
2017-12-23T11:29:45.533Z,23.43
2017-12-23T11:32:11.798Z,26.17
2017-12-23T11:34:38.047Z,25.00
2017-12-23T11:37:05.041Z,30.47
2017-12-23T11:39:31.309Z,31.23
2017-12-23T11:41:58.315Z,29.37
2017-12-23T11:44:24.566Z,19.97
2017-12-23T11:46:51.011Z,34.43
2017-12-23T11:49:18.025Z,26.80
2017-12-23T11:51:44.265Z,35.30
2017-12-23T11:54:10.672Z,27.97
2017-12-23T11:56:37.046Z,24.83
2017-12-23T11:59:03.312Z,23.47
2017-12-23T12:01:29.559Z,36.33
2017-12-23T12:03:55.835Z,36.90
2017-12-23T12:06:22.811Z,33.10
2017-12-23T12:08:49.140Z,38.57
2017-12-23T12:11:15.367Z,30.10
2017-12-23T12:13:41.632Z,47.03
2017-12-23T12:16:07.859Z,35.23
2017-12-23T12:18:34.103Z,39.70
2017-12-23T12:21:00.362Z,33.77
2017-12-23T12:23:27.393Z,36.00
2017-12-23T12:25:53.608Z,57.10
2017-12-23T12:28:19.973Z,45.00
2017-12-23T12:30:47.111Z,53.30
2017-12-23T12:33:13.353Z,34.03
2017-12-23T12:35:40.324Z,48.60
2017-12-23T12:38:06.576Z,33.10
2017-12-23T12:40:32.844Z,58.83
2017-12-23T12:42:59.085Z,44.47
2017-12-23T12:45:26.096Z,39.63
2017-12-23T12:47:52.358Z,28.50
2017-12-23T12:50:19.362Z,39.67
2017-12-23T12:52:45.616Z,43.10
2017-12-23T12:55:11.858Z,40.90
2017-12-23T12:57:38.827Z,43.73
2017-12-23T13:00:05.095Z,58.60
2017-12-23T13:02:31.352Z,46.60
2017-12-23T13:04:57.628Z,58.20
2017-12-23T13:07:23.870Z,43.00
2017-12-23T13:09:50.180Z,43.00
2017-12-23T13:12:16.436Z,59.67
2017-12-23T13:14:42.689Z,49.20
2017-12-23T13:17:08.960Z,49.13
2017-12-23T13:19:35.201Z,64.67
2017-12-23T13:22:01.452Z,55.63
2017-12-23T13:24:27.746Z,52.03
2017-12-23T13:26:54.082Z,45.43
2017-12-23T13:29:20.333Z,42.87
2017-12-23T13:31:47.415Z,56.80
2017-12-23T13:34:13.681Z,61.63
2017-12-23T13:36:39.947Z,54.47
2017-12-23T13:39:06.199Z,30.70
2017-12-23T13:41:32.486Z,46.70
2017-12-23T13:43:58.725Z,51.80
2017-12-23T13:46:24.966Z,54.83
2017-12-23T13:48:51.217Z,40.17
2017-12-23T13:51:17.459Z,41.50
2017-12-23T13:53:43.766Z,52.90
2017-12-23T13:56:10.044Z,54.00
2017-12-23T13:58:36.294Z,53.27
2017-12-23T14:01:02.635Z,43.07
2017-12-23T14:03:28.929Z,55.07
2017-12-23T14:05:55.905Z,55.53
2017-12-23T14:08:22.180Z,40.87
2017-12-23T14:10:49.161Z,42.47
2017-12-23T14:13:15.443Z,51.50
2017-12-23T14:15:41.709Z,46.50
2017-12-23T14:18:07.971Z,41.77
2017-12-23T14:20:34.195Z,49.67
2017-12-23T14:23:00.535Z,48.80
2017-12-23T14:25:26.876Z,49.73
2017-12-23T14:27:53.890Z,36.67
2017-12-23T14:30:20.145Z,44.63
2017-12-23T14:32:46.386Z,42.83
2017-12-23T14:35:12.623Z,38.60
2017-12-23T14:37:38.888Z,36.07
2017-12-23T14:40:05.112Z,43.00
2017-12-23T14:42:32.107Z,31.13
2017-12-23T14:44:58.364Z,46.13
2017-12-23T14:47:24.628Z,31.67
2017-12-23T14:49:51.662Z,44.73
2017-12-23T14:52:18.664Z,40.33
2017-12-23T14:54:44.914Z,42.53
2017-12-23T14:57:11.196Z,40.23
2017-12-23T14:59:37.420Z,35.63
2017-12-23T15:02:03.684Z,36.67
2017-12-23T15:04:29.932Z,24.93
2017-12-23T15:06:56.197Z,31.17
2017-12-23T15:09:22.460Z,27.60
2017-12-23T15:11:48.809Z,35.20
2017-12-23T15:14:15.058Z,26.27
2017-12-23T15:16:42.061Z,25.97
2017-12-23T15:19:08.315Z,31.80
2017-12-23T15:21:34.568Z,34.07
2017-12-23T15:24:01.599Z,31.90
2017-12-23T15:26:27.844Z,34.03
2017-12-23T15:28:54.870Z,28.73
2017-12-23T15:31:21.276Z,25.63
2017-12-23T15:33:55.464Z,34.43
2017-12-23T15:36:21.722Z,34.00
2017-12-23T15:38:47.980Z,28.13
2017-12-23T15:41:14.199Z,30.80
2017-12-23T15:43:40.458Z,25.10
2017-12-23T15:46:07.516Z,29.93
2017-12-23T15:48:33.793Z,27.37
2017-12-23T15:51:00.028Z,15.10
2017-12-23T15:53:26.317Z,24.43
2017-12-23T15:55:52.570Z,30.10
2017-12-23T15:58:18.844Z,26.70
2017-12-23T16:00:45.884Z,30.83
2017-12-23T16:03:12.919Z,30.67
2017-12-23T16:05:39.179Z,21.87
2017-12-23T16:08:05.433Z,33.90
2017-12-23T16:10:31.708Z,32.13
2017-12-23T16:12:58.034Z,25.60
2017-12-23T16:15:24.349Z,25.20
2017-12-23T16:17:50.596Z,29.37
2017-12-23T16:20:17.222Z,28.87
2017-12-23T16:22:43.484Z,28.20
2017-12-23T16:25:09.750Z,26.90
2017-12-23T16:27:35.959Z,24.83
2017-12-23T16:30:02.269Z,22.67
2017-12-23T16:32:29.266Z,23.27
2017-12-23T16:34:55.541Z,30.77
2017-12-23T16:37:22.528Z,19.73
2017-12-23T16:39:48.784Z,30.83
2017-12-23T16:42:15.030Z,31.60
2017-12-23T16:44:41.294Z,24.77
2017-12-23T16:47:07.605Z,27.37
2017-12-23T16:49:34.621Z,25.60
2017-12-23T16:52:00.865Z,35.20
2017-12-23T16:54:27.124Z,32.67
2017-12-23T16:56:53.346Z,23.87
2017-12-23T16:59:20.426Z,25.20
2017-12-23T17:01:46.655Z,22.57
2017-12-23T17:04:12.954Z,31.67
2017-12-23T17:06:39.200Z,27.23
2017-12-23T17:09:05.479Z,36.77
2017-12-23T17:11:31.808Z,27.17
2017-12-23T17:13:58.055Z,27.03
2017-12-23T17:16:25.023Z,32.93
2017-12-23T17:18:51.289Z,25.90
2017-12-23T17:21:17.567Z,34.80
2017-12-23T17:23:44.558Z,33.43
2017-12-23T17:26:10.856Z,20.10
2017-12-23T17:28:49.499Z,38.03
2017-12-23T17:31:15.730Z,26.37
2017-12-23T17:33:42.026Z,29.37
2017-12-23T17:36:09.014Z,33.50
2017-12-23T17:38:35.293Z,33.63
2017-12-23T17:41:02.304Z,42.00
2017-12-23T17:43:28.568Z,39.87
2017-12-23T17:45:55.564Z,35.97
2017-12-23T17:48:21.849Z,46.73
2017-12-23T17:50:48.843Z,52.13
2017-12-23T17:53:15.451Z,33.73
2017-12-23T17:55:41.720Z,45.43
2017-12-23T17:58:08.077Z,42.87
2017-12-23T18:00:34.358Z,47.17
2017-12-23T18:03:00.618Z,40.37
2017-12-23T18:05:26.880Z,47.20
2017-12-23T18:07:53.859Z,35.47
2017-12-23T18:10:20.116Z,29.17
2017-12-23T18:12:46.342Z,32.70
2017-12-23T18:15:12.705Z,31.50
2017-12-23T18:17:39.729Z,34.40
2017-12-23T18:20:06.013Z,35.17
2017-12-23T18:22:32.386Z,41.23
2017-12-23T18:24:58.664Z,36.60
2017-12-23T18:27:24.962Z,38.20
2017-12-23T18:29:51.214Z,37.67
2017-12-23T18:32:18.225Z,36.00
2017-12-23T18:34:44.585Z,33.57
2017-12-23T18:37:11.617Z,33.97
2017-12-23T18:39:38.605Z,37.13
2017-12-23T18:42:04.865Z,26.70
2017-12-23T18:44:31.871Z,28.77
2017-12-23T18:46:58.155Z,24.20
2017-12-23T18:49:24.416Z,34.93
2017-12-23T18:51:51.441Z,34.33
2017-12-23T18:54:17.733Z,23.83
2017-12-23T18:56:43.994Z,36.87
2017-12-23T18:59:10.313Z,17.57
2017-12-23T19:01:36.586Z,29.60
2017-12-23T19:04:03.613Z,31.93
2017-12-23T19:06:29.916Z,35.97
2017-12-23T19:08:56.953Z,31.93
2017-12-23T19:11:23.196Z,33.47
2017-12-23T19:13:49.456Z,42.17
2017-12-23T19:16:29.026Z,29.97
2017-12-23T19:18:55.375Z,26.13
2017-12-23T19:21:21.638Z,31.10
2017-12-23T19:23:47.909Z,36.47
2017-12-23T19:26:14.265Z,41.43
2017-12-23T19:28:40.553Z,39.70
2017-12-23T19:31:07.583Z,36.87
2017-12-23T19:33:33.957Z,30.33
2017-12-23T19:36:00.229Z,32.47
2017-12-23T19:38:26.478Z,39.87
2017-12-23T19:40:53.039Z,42.67
2017-12-23T19:43:19.295Z,37.70
2017-12-23T19:45:45.593Z,43.83
2017-12-23T19:48:11.856Z,37.80
2017-12-23T19:50:38.180Z,42.50
2017-12-23T19:53:04.477Z,34.03
2017-12-23T19:55:31.512Z,47.43
2017-12-23T19:57:57.854Z,34.00
2017-12-23T20:00:24.869Z,38.83
2017-12-23T20:02:51.123Z,39.97
2017-12-23T20:05:18.191Z,39.00
2017-12-23T20:07:44.457Z,43.60
2017-12-23T20:10:10.723Z,30.37
2017-12-23T20:12:37.713Z,43.30
2017-12-23T20:15:03.955Z,45.97
2017-12-23T20:17:30.194Z,33.47
2017-12-23T20:19:56.448Z,31.30
2017-12-23T20:22:22.711Z,45.37
2017-12-23T20:24:48.999Z,44.37
2017-12-23T20:27:15.298Z,35.93
2017-12-23T20:29:41.588Z,43.00
2017-12-23T20:32:08.636Z,42.43
2017-12-23T20:34:34.919Z,26.70
2017-12-23T20:37:01.181Z,38.03
2017-12-23T20:39:28.221Z,32.73
2017-12-23T20:41:54.459Z,38.33
2017-12-23T20:44:21.468Z,38.20
2017-12-23T20:46:47.747Z,34.57
2017-12-23T20:49:14.761Z,31.17
2017-12-23T20:51:41.023Z,26.43
2017-12-23T20:54:08.040Z,33.67
2017-12-23T20:56:34.409Z,34.93
2017-12-23T20:59:00.670Z,39.03
2017-12-23T21:01:26.917Z,32.40
2017-12-23T21:03:53.184Z,31.47
2017-12-23T21:06:20.167Z,38.37
2017-12-23T21:08:46.462Z,40.93
2017-12-23T21:11:13.437Z,37.00
2017-12-23T21:13:39.748Z,21.80
2017-12-23T21:16:05.987Z,33.30
2017-12-23T21:18:32.247Z,24.47
2017-12-23T21:20:58.491Z,29.33
2017-12-23T21:23:24.776Z,18.20
2017-12-23T21:25:51.038Z,29.20
2017-12-23T21:28:17.317Z,31.93
2017-12-23T21:30:44.306Z,29.50
2017-12-23T21:33:10.563Z,38.00
2017-12-23T21:35:36.807Z,31.23
2017-12-23T21:38:03.925Z,21.97
2017-12-23T21:40:30.203Z,32.00
2017-12-23T21:42:56.452Z,37.97
2017-12-23T21:45:22.715Z,40.27
2017-12-23T21:47:49.009Z,39.20
2017-12-23T21:50:15.334Z,29.60
2017-12-23T21:52:41.603Z,38.53
2017-12-23T21:55:07.880Z,34.87
2017-12-23T21:57:34.138Z,35.00
2017-12-23T22:00:00.413Z,28.07
2017-12-23T22:02:27.386Z,35.77
2017-12-23T22:04:53.661Z,40.57
2017-12-23T22:07:19.981Z,31.70
2017-12-23T22:09:47.009Z,28.53
2017-12-23T22:12:13.269Z,35.33
2017-12-23T22:14:39.627Z,34.63
2017-12-23T22:17:06.629Z,28.87
2017-12-23T22:19:32.867Z,38.33
2017-12-23T22:21:59.168Z,39.80
2017-12-23T22:24:25.432Z,24.30
2017-12-23T22:26:51.748Z,25.13
2017-12-23T22:29:18.027Z,38.37
2017-12-23T22:31:45.019Z,35.87
2017-12-23T22:34:11.258Z,43.47
2017-12-23T22:36:37.526Z,33.00
2017-12-23T22:39:04.512Z,27.43
2017-12-23T22:41:30.864Z,34.07
2017-12-23T22:43:57.109Z,30.47
2017-12-23T22:46:23.398Z,34.80
2017-12-23T22:48:49.642Z,26.47
2017-12-23T22:51:15.909Z,29.50
2017-12-23T22:53:42.143Z,42.17
2017-12-23T22:56:08.399Z,21.63
2017-12-23T22:58:34.685Z,35.10
2017-12-23T23:01:00.983Z,28.17
2017-12-23T23:03:27.223Z,36.43
2017-12-23T23:05:53.508Z,30.33
2017-12-23T23:08:20.530Z,21.17
2017-12-23T23:10:46.836Z,19.40
2017-12-23T23:13:13.217Z,29.73
2017-12-23T23:15:40.236Z,27.47
2017-12-23T23:18:06.473Z,35.10
2017-12-23T23:20:32.814Z,29.50
2017-12-23T23:22:59.849Z,36.53
2017-12-23T23:25:26.191Z,29.40
2017-12-23T23:27:53.238Z,34.17
2017-12-23T23:30:19.617Z,26.67
2017-12-23T23:32:45.860Z,26.60
2017-12-23T23:35:12.117Z,25.80
2017-12-23T23:37:38.404Z,25.60
2017-12-23T23:40:04.700Z,26.80
2017-12-23T23:42:31.060Z,27.60
2017-12-23T23:44:57.329Z,19.97
2017-12-23T23:47:23.607Z,37.40
2017-12-23T23:49:49.845Z,21.83
2017-12-23T23:52:16.131Z,30.03
2017-12-23T23:54:43.138Z,38.70
2017-12-23T23:57:09.406Z,32.87
2017-12-23T23:59:36.410Z,32.90
